JST782 YMML-YPAD
Flight info
| Callsign | JST782 |
|---|---|
| Flight time | 1h 3m |
| Altitude | 38000 |
| Route | ML H345 AD |
| Aircraft | A320/M-SDE3FGHIRWY/LB1 |
Departure
| Time | 2026-05-05 09:25 |
|---|---|
| Airport | Melbourne Airport (YMML) |
Arrival
| Time | 2026-05-05 10:28 |
|---|---|
| Airport | Adelaide International Airport (YPAD) |
| Time | Latitude | Longitude | Altitude | Speed | Heading |
|---|---|---|---|---|---|
| 2026-05-05 08:57 | -37.67530 | 144.84791 | 380 ft | 0 kts | 171° |
| 2026-05-05 09:14 | -37.67519 | 144.84789 | 380 ft | 4 kts | 171° |
| 2026-05-05 09:14 | -37.67492 | 144.84784 | 380 ft | 4 kts | 171° |
| 2026-05-05 09:14 | -37.67466 | 144.84779 | 381 ft | 4 kts | 176° |
| 2026-05-05 09:15 | -37.67439 | 144.84780 | 382 ft | 4 kts | 205° |
| 2026-05-05 09:15 | -37.67428 | 144.84792 | 382 ft | 0 kts | 261° |
| 2026-05-05 09:15 | -37.67431 | 144.84766 | 382 ft | 4 kts | 261° |
| 2026-05-05 09:15 | -37.67435 | 144.84733 | 382 ft | 4 kts | 261° |
| 2026-05-05 09:16 | -37.67439 | 144.84699 | 381 ft | 4 kts | 261° |
| 2026-05-05 09:16 | -37.67443 | 144.84665 | 381 ft | 4 kts | 261° |
| 2026-05-05 09:16 | -37.67447 | 144.84637 | 381 ft | 1 kts | 261° |
| 2026-05-05 09:19 | -37.67447 | 144.84633 | 381 ft | 3 kts | 261° |
| 2026-05-05 09:20 | -37.67454 | 144.84575 | 380 ft | 9 kts | 261° |
| 2026-05-05 09:20 | -37.67466 | 144.84476 | 378 ft | 14 kts | 261° |
| 2026-05-05 09:20 | -37.67481 | 144.84342 | 376 ft | 13 kts | 271° |
| 2026-05-05 09:20 | -37.67423 | 144.84312 | 377 ft | 9 kts | 345° |
| 2026-05-05 09:21 | -37.67333 | 144.84293 | 379 ft | 18 kts | 351° |
| 2026-05-05 09:21 | -37.67189 | 144.84264 | 382 ft | 24 kts | 351° |
| 2026-05-05 09:21 | -37.67024 | 144.84238 | 385 ft | 24 kts | 353° |
| 2026-05-05 09:21 | -37.66859 | 144.84205 | 390 ft | 24 kts | 349° |
| 2026-05-05 09:22 | -37.66698 | 144.84175 | 394 ft | 23 kts | 351° |
| 2026-05-05 09:22 | -37.66556 | 144.84211 | 400 ft | 21 kts | 46° |
| 2026-05-05 09:22 | -37.66516 | 144.84390 | 404 ft | 22 kts | 79° |
| 2026-05-05 09:22 | -37.66494 | 144.84589 | 406 ft | 24 kts | 81° |
| 2026-05-05 09:23 | -37.66426 | 144.84763 | 410 ft | 22 kts | 36° |
| 2026-05-05 09:23 | -37.66281 | 144.84773 | 413 ft | 21 kts | 338° |
| 2026-05-05 09:23 | -37.66218 | 144.84659 | 413 ft | 10 kts | 283° |
| 2026-05-05 09:23 | -37.66214 | 144.84593 | 413 ft | 1 kts | 272° |
| 2026-05-05 09:24 | -37.66213 | 144.84569 | 413 ft | 12 kts | 271° |
| 2026-05-05 09:24 | -37.66187 | 144.84117 | 413 ft | 88 kts | 274° |
| 2026-05-05 09:24 | -37.66126 | 144.83095 | 412 ft | 143 kts | 275° |
| 2026-05-05 09:24 | -37.66056 | 144.81719 | 700 ft | 162 kts | 275° |
| 2026-05-05 09:25 | -37.65956 | 144.80267 | 1296 ft | 170 kts | 276° |
| 2026-05-05 09:25 | -37.65821 | 144.78769 | 2003 ft | 171 kts | 276° |
| 2026-05-05 09:25 | -37.65660 | 144.77287 | 2669 ft | 171 kts | 277° |
| 2026-05-05 09:25 | -37.65483 | 144.75786 | 3267 ft | 174 kts | 277° |
| 2026-05-05 09:26 | -37.65318 | 144.74271 | 3859 ft | 177 kts | 273° |
| 2026-05-05 09:26 | -37.65253 | 144.72632 | 4163 ft | 198 kts | 270° |
| 2026-05-05 09:26 | -37.65216 | 144.70816 | 4446 ft | 222 kts | 270° |
| 2026-05-05 09:26 | -37.65164 | 144.68755 | 4882 ft | 247 kts | 270° |
| 2026-05-05 09:27 | -37.65079 | 144.66522 | 5530 ft | 261 kts | 274° |
| 2026-05-05 09:27 | -37.64676 | 144.64264 | 6398 ft | 268 kts | 289° |
| 2026-05-05 09:27 | -37.63990 | 144.62055 | 7268 ft | 272 kts | 290° |
| 2026-05-05 09:27 | -37.63278 | 144.59827 | 8150 ft | 275 kts | 290° |
| 2026-05-05 09:28 | -37.62552 | 144.57582 | 9036 ft | 278 kts | 290° |
| 2026-05-05 09:28 | -37.61816 | 144.55312 | 9914 ft | 281 kts | 289° |
| 2026-05-05 09:28 | -37.61071 | 144.53010 | 10585 ft | 291 kts | 289° |
| 2026-05-05 09:28 | -37.60283 | 144.50559 | 10852 ft | 313 kts | 289° |
| 2026-05-05 09:29 | -37.59449 | 144.47966 | 11387 ft | 323 kts | 290° |
| 2026-05-05 09:29 | -37.58597 | 144.45325 | 12075 ft | 328 kts | 290° |
| 2026-05-05 09:29 | -37.57730 | 144.42648 | 12819 ft | 332 kts | 290° |
| 2026-05-05 09:29 | -37.56854 | 144.39942 | 13549 ft | 335 kts | 290° |
| 2026-05-05 09:30 | -37.55965 | 144.37201 | 14247 ft | 339 kts | 290° |
| 2026-05-05 09:30 | -37.55070 | 144.34439 | 14886 ft | 343 kts | 290° |
| 2026-05-05 09:30 | -37.54163 | 144.31643 | 15507 ft | 346 kts | 290° |
| 2026-05-05 09:30 | -37.53246 | 144.28820 | 16125 ft | 350 kts | 290° |
| 2026-05-05 09:31 | -37.52320 | 144.25968 | 16747 ft | 354 kts | 290° |
| 2026-05-05 09:31 | -37.51383 | 144.23089 | 17350 ft | 357 kts | 291° |
| 2026-05-05 09:31 | -37.50435 | 144.20179 | 17968 ft | 361 kts | 291° |
| 2026-05-05 09:31 | -37.49481 | 144.17239 | 18581 ft | 365 kts | 291° |
| 2026-05-05 09:32 | -37.48515 | 144.14267 | 19129 ft | 368 kts | 291° |
| 2026-05-05 09:32 | -37.47540 | 144.11272 | 19693 ft | 372 kts | 291° |
| 2026-05-05 09:32 | -37.46554 | 144.08251 | 20261 ft | 375 kts | 291° |
| 2026-05-05 09:32 | -37.45555 | 144.05202 | 20825 ft | 378 kts | 291° |
| 2026-05-05 09:33 | -37.44547 | 144.02137 | 21382 ft | 381 kts | 291° |
| 2026-05-05 09:33 | -37.43527 | 143.99039 | 21910 ft | 385 kts | 291° |
| 2026-05-05 09:33 | -37.42500 | 143.95916 | 22439 ft | 388 kts | 291° |
| 2026-05-05 09:33 | -37.41462 | 143.92767 | 22976 ft | 391 kts | 291° |
| 2026-05-05 09:34 | -37.40411 | 143.89592 | 23524 ft | 395 kts | 291° |
| 2026-05-05 09:34 | -37.39358 | 143.86392 | 24021 ft | 398 kts | 291° |
| 2026-05-05 09:34 | -37.38302 | 143.83164 | 24480 ft | 400 kts | 291° |
| 2026-05-05 09:34 | -37.37238 | 143.79910 | 24949 ft | 402 kts | 291° |
| 2026-05-05 09:35 | -37.36170 | 143.76656 | 25403 ft | 404 kts | 291° |
| 2026-05-05 09:35 | -37.34023 | 143.70140 | 26272 ft | 409 kts | 291° |
| 2026-05-05 09:35 | -37.33287 | 143.67912 | 26565 ft | 410 kts | 291° |
| 2026-05-05 09:36 | -37.31805 | 143.63468 | 27138 ft | 413 kts | 291° |
| 2026-05-05 09:36 | -37.30694 | 143.60143 | 27572 ft | 414 kts | 291° |
| 2026-05-05 09:36 | -37.29590 | 143.56838 | 28001 ft | 416 kts | 291° |
| 2026-05-05 09:36 | -37.28833 | 143.54571 | 28286 ft | 417 kts | 291° |
| 2026-05-05 09:37 | -37.27353 | 143.50127 | 28840 ft | 419 kts | 291° |
| 2026-05-05 09:37 | -37.26592 | 143.47828 | 29086 ft | 421 kts | 291° |
| 2026-05-05 09:37 | -37.25464 | 143.44431 | 29474 ft | 423 kts | 291° |
| 2026-05-05 09:37 | -37.24321 | 143.41023 | 29868 ft | 425 kts | 291° |
| 2026-05-05 09:38 | -37.23170 | 143.37590 | 30264 ft | 427 kts | 292° |
| 2026-05-05 09:38 | -37.22010 | 143.34147 | 30605 ft | 429 kts | 292° |
| 2026-05-05 09:38 | -37.20847 | 143.30699 | 30946 ft | 431 kts | 292° |
| 2026-05-05 09:38 | -37.19678 | 143.27240 | 31292 ft | 432 kts | 292° |
| 2026-05-05 09:39 | -37.18545 | 143.23789 | 31630 ft | 433 kts | 291° |
| 2026-05-05 09:39 | -37.17453 | 143.20240 | 32108 ft | 430 kts | 290° |
| 2026-05-05 09:39 | -37.16428 | 143.16785 | 32604 ft | 428 kts | 289° |
| 2026-05-05 09:39 | -37.15402 | 143.13299 | 33113 ft | 425 kts | 289° |
| 2026-05-05 09:40 | -37.14355 | 143.09776 | 33634 ft | 423 kts | 289° |
| 2026-05-05 09:40 | -37.13322 | 143.06335 | 34135 ft | 421 kts | 290° |
| 2026-05-05 09:40 | -37.12281 | 143.02917 | 34584 ft | 418 kts | 290° |
| 2026-05-05 09:40 | -37.11243 | 142.99532 | 34986 ft | 416 kts | 290° |
| 2026-05-05 09:41 | -37.10204 | 142.96156 | 35392 ft | 414 kts | 290° |
| 2026-05-05 09:41 | -37.09167 | 142.92791 | 35770 ft | 413 kts | 290° |
| 2026-05-05 09:41 | -37.08134 | 142.89447 | 36136 ft | 411 kts | 290° |
| 2026-05-05 09:41 | -37.07102 | 142.86116 | 36492 ft | 410 kts | 290° |
| 2026-05-05 09:42 | -37.06090 | 142.82839 | 36835 ft | 409 kts | 290° |
| 2026-05-05 09:42 | -37.05055 | 142.79480 | 37174 ft | 407 kts | 290° |
| 2026-05-05 09:42 | -37.04037 | 142.76174 | 37491 ft | 406 kts | 290° |
| 2026-05-05 09:42 | -37.03032 | 142.72924 | 37816 ft | 405 kts | 290° |
| 2026-05-05 09:43 | -37.02013 | 142.69648 | 38131 ft | 404 kts | 290° |
| 2026-05-05 09:43 | -37.00991 | 142.66370 | 38255 ft | 404 kts | 290° |
| 2026-05-05 09:43 | -36.98945 | 142.59815 | 38272 ft | 404 kts | 290° |
| 2026-05-05 09:44 | -36.96906 | 142.53271 | 38271 ft | 404 kts | 290° |
| 2026-05-05 09:44 | -36.94856 | 142.46689 | 38272 ft | 403 kts | 290° |
| 2026-05-05 09:45 | -36.92814 | 142.40163 | 38271 ft | 403 kts | 290° |
| 2026-05-05 09:45 | -36.90768 | 142.33630 | 38275 ft | 404 kts | 290° |
| 2026-05-05 09:46 | -36.88728 | 142.27149 | 38274 ft | 404 kts | 290° |
| 2026-05-05 09:46 | -36.86662 | 142.20626 | 38280 ft | 404 kts | 290° |
| 2026-05-05 09:47 | -36.84601 | 142.14107 | 38287 ft | 404 kts | 290° |
| 2026-05-05 09:47 | -36.82532 | 142.07578 | 38289 ft | 404 kts | 290° |
| 2026-05-05 09:48 | -36.80472 | 142.01066 | 38282 ft | 404 kts | 290° |
| 2026-05-05 09:48 | -36.78405 | 141.94543 | 38285 ft | 404 kts | 290° |
| 2026-05-05 09:49 | -36.76332 | 141.88032 | 38290 ft | 404 kts | 290° |
| 2026-05-05 09:49 | -36.74250 | 141.81534 | 38291 ft | 404 kts | 290° |
| 2026-05-05 09:50 | -36.72170 | 141.75036 | 38286 ft | 404 kts | 290° |
| 2026-05-05 09:50 | -36.70088 | 141.68541 | 38292 ft | 404 kts | 290° |
| 2026-05-05 09:51 | -36.68002 | 141.62053 | 38295 ft | 403 kts | 290° |
| 2026-05-05 09:51 | -36.65902 | 141.55563 | 38292 ft | 403 kts | 290° |
| 2026-05-05 09:52 | -36.63810 | 141.49089 | 38296 ft | 403 kts | 290° |
| 2026-05-05 09:52 | -36.61718 | 141.42612 | 38292 ft | 403 kts | 290° |
| 2026-05-05 09:53 | -36.59618 | 141.36137 | 38295 ft | 403 kts | 290° |
| 2026-05-05 09:53 | -36.57514 | 141.29664 | 38294 ft | 403 kts | 290° |
| 2026-05-05 09:54 | -36.55404 | 141.23207 | 38292 ft | 403 kts | 290° |
| 2026-05-05 09:54 | -36.53294 | 141.16748 | 38292 ft | 403 kts | 290° |
| 2026-05-05 09:55 | -36.51186 | 141.10296 | 38290 ft | 403 kts | 291° |
| 2026-05-05 09:55 | -36.49069 | 141.03849 | 38293 ft | 403 kts | 291° |
| 2026-05-05 09:56 | -36.46951 | 140.97404 | 38291 ft | 403 kts | 291° |
| 2026-05-05 09:56 | -36.44829 | 140.90962 | 38293 ft | 403 kts | 291° |
| 2026-05-05 09:57 | -36.42705 | 140.84531 | 38289 ft | 403 kts | 291° |
| 2026-05-05 09:57 | -36.40577 | 140.78105 | 38295 ft | 403 kts | 291° |
| 2026-05-05 09:58 | -36.37917 | 140.72000 | 38293 ft | 405 kts | 306° |
| 2026-05-05 09:58 | -36.34420 | 140.66504 | 38293 ft | 406 kts | 306° |
| 2026-05-05 09:59 | -36.30932 | 140.61004 | 38296 ft | 406 kts | 306° |
| 2026-05-05 09:59 | -36.27461 | 140.55537 | 38296 ft | 406 kts | 306° |
| 2026-05-05 10:00 | -36.23950 | 140.50007 | 38298 ft | 406 kts | 306° |
| 2026-05-05 10:00 | -36.20479 | 140.44545 | 38299 ft | 406 kts | 306° |
| 2026-05-05 10:01 | -36.16985 | 140.39053 | 38297 ft | 406 kts | 306° |
| 2026-05-05 10:01 | -36.15239 | 140.36309 | 38085 ft | 406 kts | 306° |
| 2026-05-05 10:01 | -36.13498 | 140.33578 | 37645 ft | 403 kts | 306° |
| 2026-05-05 10:02 | -36.11760 | 140.30858 | 37127 ft | 402 kts | 306° |
| 2026-05-05 10:02 | -36.10024 | 140.28147 | 36550 ft | 402 kts | 306° |
| 2026-05-05 10:02 | -36.08269 | 140.25411 | 36164 ft | 398 kts | 306° |
| 2026-05-05 10:02 | -36.06580 | 140.22778 | 35722 ft | 396 kts | 306° |
| 2026-05-05 10:03 | -36.04877 | 140.20124 | 35283 ft | 393 kts | 306° |
| 2026-05-05 10:03 | -36.03185 | 140.17486 | 34823 ft | 391 kts | 306° |
| 2026-05-05 10:03 | -36.01493 | 140.14851 | 34364 ft | 390 kts | 306° |
| 2026-05-05 10:03 | -35.99813 | 140.12239 | 33870 ft | 388 kts | 306° |
| 2026-05-05 10:04 | -35.98142 | 140.09639 | 33403 ft | 384 kts | 306° |
| 2026-05-05 10:04 | -35.96489 | 140.07065 | 32948 ft | 382 kts | 306° |
| 2026-05-05 10:04 | -35.94843 | 140.04507 | 32501 ft | 379 kts | 307° |
| 2026-05-05 10:04 | -35.93205 | 140.01964 | 32055 ft | 378 kts | 307° |
| 2026-05-05 10:05 | -35.91575 | 139.99433 | 31618 ft | 376 kts | 307° |
| 2026-05-05 10:05 | -35.89947 | 139.96909 | 31182 ft | 375 kts | 307° |
| 2026-05-05 10:05 | -35.88330 | 139.94403 | 30771 ft | 373 kts | 307° |
| 2026-05-05 10:05 | -35.86711 | 139.91901 | 30345 ft | 373 kts | 307° |
| 2026-05-05 10:06 | -35.85101 | 139.89412 | 29893 ft | 371 kts | 307° |
| 2026-05-05 10:06 | -35.83496 | 139.86938 | 29486 ft | 369 kts | 308° |
| 2026-05-05 10:06 | -35.81895 | 139.84472 | 29089 ft | 367 kts | 308° |
| 2026-05-05 10:06 | -35.80304 | 139.82025 | 28708 ft | 365 kts | 308° |
| 2026-05-05 10:07 | -35.78725 | 139.79591 | 28327 ft | 363 kts | 308° |
| 2026-05-05 10:07 | -35.77154 | 139.77167 | 27937 ft | 361 kts | 308° |
| 2026-05-05 10:07 | -35.75592 | 139.74756 | 27545 ft | 359 kts | 308° |
| 2026-05-05 10:07 | -35.74039 | 139.72363 | 27156 ft | 357 kts | 308° |
| 2026-05-05 10:08 | -35.72497 | 139.69987 | 26753 ft | 355 kts | 308° |
| 2026-05-05 10:08 | -35.70957 | 139.67618 | 26360 ft | 353 kts | 308° |
| 2026-05-05 10:08 | -35.69423 | 139.65261 | 25950 ft | 352 kts | 308° |
| 2026-05-05 10:08 | -35.67894 | 139.62919 | 25541 ft | 351 kts | 309° |
| 2026-05-05 10:09 | -35.66367 | 139.60578 | 25131 ft | 350 kts | 309° |
| 2026-05-05 10:09 | -35.64848 | 139.58250 | 24703 ft | 349 kts | 309° |
| 2026-05-05 10:09 | -35.63328 | 139.55921 | 24281 ft | 349 kts | 309° |
| 2026-05-05 10:09 | -35.61804 | 139.53590 | 23850 ft | 349 kts | 309° |
| 2026-05-05 10:10 | -35.60288 | 139.51276 | 23368 ft | 348 kts | 309° |
| 2026-05-05 10:10 | -35.58771 | 139.48964 | 22951 ft | 346 kts | 309° |
| 2026-05-05 10:10 | -35.57267 | 139.46670 | 22524 ft | 344 kts | 309° |
| 2026-05-05 10:10 | -35.55772 | 139.44385 | 22104 ft | 342 kts | 309° |
| 2026-05-05 10:11 | -35.54290 | 139.42123 | 21686 ft | 340 kts | 309° |
| 2026-05-05 10:11 | -35.52808 | 139.39867 | 21262 ft | 339 kts | 309° |
| 2026-05-05 10:11 | -35.51330 | 139.37614 | 20843 ft | 337 kts | 309° |
| 2026-05-05 10:11 | -35.49860 | 139.35374 | 20426 ft | 336 kts | 309° |
| 2026-05-05 10:12 | -35.48397 | 139.33147 | 20012 ft | 335 kts | 308° |
| 2026-05-05 10:12 | -35.46933 | 139.30924 | 19595 ft | 334 kts | 308° |
| 2026-05-05 10:12 | -35.45477 | 139.28713 | 19183 ft | 333 kts | 308° |
| 2026-05-05 10:12 | -35.44022 | 139.26507 | 18773 ft | 332 kts | 308° |
| 2026-05-05 10:13 | -35.42459 | 139.24443 | 18333 ft | 332 kts | 319° |
| 2026-05-05 10:13 | -35.40547 | 139.22873 | 17911 ft | 330 kts | 333° |
| 2026-05-05 10:13 | -35.38428 | 139.21813 | 17504 ft | 328 kts | 338° |
| 2026-05-05 10:13 | -35.36295 | 139.20828 | 17097 ft | 326 kts | 338° |
| 2026-05-05 10:14 | -35.34179 | 139.19849 | 16694 ft | 325 kts | 338° |
| 2026-05-05 10:14 | -35.32069 | 139.18872 | 16292 ft | 323 kts | 338° |
| 2026-05-05 10:14 | -35.29972 | 139.17901 | 15902 ft | 322 kts | 338° |
| 2026-05-05 10:14 | -35.27884 | 139.16932 | 15507 ft | 321 kts | 338° |
| 2026-05-05 10:15 | -35.25803 | 139.15966 | 15117 ft | 320 kts | 338° |
| 2026-05-05 10:15 | -35.23724 | 139.14999 | 14726 ft | 319 kts | 338° |
| 2026-05-05 10:15 | -35.21653 | 139.14037 | 14329 ft | 319 kts | 338° |
| 2026-05-05 10:15 | -35.19580 | 139.13078 | 13911 ft | 318 kts | 338° |
| 2026-05-05 10:16 | -35.17514 | 139.12125 | 13502 ft | 317 kts | 338° |
| 2026-05-05 10:16 | -35.15463 | 139.11180 | 13277 ft | 310 kts | 338° |
| 2026-05-05 10:16 | -35.13468 | 139.10262 | 13293 ft | 307 kts | 338° |
| 2026-05-05 10:16 | -35.11472 | 139.09342 | 13290 ft | 306 kts | 338° |
| 2026-05-05 10:17 | -35.09502 | 139.08435 | 13292 ft | 306 kts | 338° |
| 2026-05-05 10:17 | -35.07535 | 139.07445 | 13292 ft | 305 kts | 330° |
| 2026-05-05 10:17 | -35.05799 | 139.05987 | 13255 ft | 304 kts | 317° |
| 2026-05-05 10:17 | -35.04212 | 139.04230 | 12441 ft | 311 kts | 316° |
| 2026-05-05 10:18 | -35.02609 | 139.02423 | 11555 ft | 314 kts | 316° |
| 2026-05-05 10:18 | -35.01013 | 139.00616 | 10806 ft | 312 kts | 316° |
| 2026-05-05 10:18 | -34.99433 | 138.98834 | 10144 ft | 307 kts | 316° |
| 2026-05-05 10:18 | -34.97900 | 138.97113 | 9769 ft | 292 kts | 316° |
| 2026-05-05 10:19 | -34.96421 | 138.95455 | 9169 ft | 286 kts | 316° |
| 2026-05-05 10:19 | -34.94980 | 138.93838 | 8749 ft | 281 kts | 316° |
| 2026-05-05 10:19 | -34.93537 | 138.92222 | 8145 ft | 280 kts | 316° |
| 2026-05-05 10:19 | -34.92111 | 138.90626 | 7652 ft | 276 kts | 316° |
| 2026-05-05 10:20 | -34.90701 | 138.89050 | 7165 ft | 274 kts | 316° |
| 2026-05-05 10:20 | -34.89307 | 138.87493 | 6682 ft | 269 kts | 316° |
| 2026-05-05 10:20 | -34.87938 | 138.85965 | 6167 ft | 264 kts | 316° |
| 2026-05-05 10:20 | -34.86592 | 138.84465 | 5657 ft | 260 kts | 317° |
| 2026-05-05 10:21 | -34.85276 | 138.82996 | 5145 ft | 256 kts | 317° |
| 2026-05-05 10:21 | -34.83980 | 138.81549 | 4644 ft | 252 kts | 317° |
| 2026-05-05 10:21 | -34.82689 | 138.80111 | 4131 ft | 249 kts | 317° |
| 2026-05-05 10:21 | -34.81419 | 138.78698 | 3622 ft | 245 kts | 317° |
| 2026-05-05 10:22 | -34.80644 | 138.77724 | 3280 ft | 241 kts | 304° |
| 2026-05-05 10:22 | -34.80129 | 138.75877 | 3021 ft | 223 kts | 269° |
| 2026-05-05 10:22 | -34.80473 | 138.74157 | 3003 ft | 201 kts | 240° |
| 2026-05-05 10:22 | -34.81264 | 138.72894 | 3031 ft | 176 kts | 230° |
| 2026-05-05 10:23 | -34.82016 | 138.71807 | 3009 ft | 165 kts | 230° |
| 2026-05-05 10:23 | -34.82756 | 138.70733 | 3008 ft | 166 kts | 230° |
| 2026-05-05 10:23 | -34.83497 | 138.69661 | 3008 ft | 166 kts | 230° |
| 2026-05-05 10:23 | -34.84240 | 138.68584 | 2961 ft | 166 kts | 230° |
| 2026-05-05 10:24 | -34.84984 | 138.67506 | 2801 ft | 166 kts | 230° |
| 2026-05-05 10:24 | -34.85722 | 138.66437 | 2594 ft | 165 kts | 230° |
| 2026-05-05 10:24 | -34.86457 | 138.65371 | 2383 ft | 164 kts | 230° |
| 2026-05-05 10:24 | -34.87191 | 138.64307 | 2163 ft | 163 kts | 230° |
| 2026-05-05 10:25 | -34.87916 | 138.63255 | 1937 ft | 162 kts | 230° |
| 2026-05-05 10:25 | -34.88638 | 138.62208 | 1722 ft | 160 kts | 230° |
| 2026-05-05 10:25 | -34.89313 | 138.61228 | 1513 ft | 144 kts | 230° |
| 2026-05-05 10:25 | -34.89947 | 138.60312 | 1323 ft | 139 kts | 229° |
| 2026-05-05 10:26 | -34.90570 | 138.59420 | 1119 ft | 137 kts | 230° |
| 2026-05-05 10:26 | -34.91187 | 138.58534 | 913 ft | 137 kts | 230° |
| 2026-05-05 10:26 | -34.91797 | 138.57637 | 705 ft | 138 kts | 230° |
| 2026-05-05 10:26 | -34.92399 | 138.56736 | 540 ft | 137 kts | 231° |
| 2026-05-05 10:27 | -34.93016 | 138.55844 | 372 ft | 137 kts | 230° |
| 2026-05-05 10:27 | -34.93629 | 138.54960 | 222 ft | 137 kts | 230° |
| 2026-05-05 10:27 | -34.94237 | 138.54075 | 51 ft | 136 kts | 230° |
| 2026-05-05 10:27 | -34.94796 | 138.53257 | 26 ft | 110 kts | 227° |
| 2026-05-05 10:28 | -34.95113 | 138.52800 | 22 ft | 27 kts | 230° |
| 2026-05-05 10:28 | -34.95218 | 138.52648 | 23 ft | 24 kts | 230° |
| 2026-05-05 10:28 | -34.95211 | 138.52523 | 20 ft | 16 kts | 324° |
| 2026-05-05 10:28 | -34.95123 | 138.52452 | 23 ft | 9 kts | 342° |
| 2026-05-05 10:29 | -34.95089 | 138.52445 | 20 ft | 0 kts | 356° |
| 2026-05-05 10:29 | -34.95071 | 138.52446 | 21 ft | 4 kts | 5° |
| 2026-05-05 10:29 | -34.95032 | 138.52456 | 20 ft | 7 kts | 19° |
| 2026-05-05 10:29 | -34.94983 | 138.52495 | 20 ft | 10 kts | 38° |
| 2026-05-05 10:30 | -34.94918 | 138.52556 | 21 ft | 14 kts | 39° |
| 2026-05-05 10:30 | -34.94835 | 138.52632 | 20 ft | 16 kts | 37° |
| 2026-05-05 10:30 | -34.94738 | 138.52726 | 20 ft | 19 kts | 38° |
| 2026-05-05 10:30 | -34.94625 | 138.52836 | 21 ft | 22 kts | 43° |
| 2026-05-05 10:31 | -34.94517 | 138.52934 | 25 ft | 18 kts | 37° |
| 2026-05-05 10:31 | -34.94440 | 138.53049 | 23 ft | 14 kts | 83° |
| 2026-05-05 10:31 | -34.94468 | 138.53140 | 24 ft | 13 kts | 121° |
| 2026-05-05 10:31 | -34.94514 | 138.53247 | 24 ft | 16 kts | 106° |
| 2026-05-05 10:32 | -34.94477 | 138.53383 | 26 ft | 19 kts | 49° |
| 2026-05-05 10:32 | -34.94386 | 138.53519 | 24 ft | 22 kts | 46° |
| 2026-05-05 10:32 | -34.94288 | 138.53654 | 24 ft | 14 kts | 41° |
| 2026-05-05 10:32 | -34.94201 | 138.53637 | 25 ft | 10 kts | 7° |
| 2026-05-05 10:33 | -34.94153 | 138.53635 | 26 ft | 7 kts | 321° |
| 2026-05-05 10:33 | -34.94128 | 138.53610 | 27 ft | 3 kts | 320° |
| 2026-05-05 10:33 | -34.94111 | 138.53593 | 27 ft | 2 kts | 320° |
| 2026-05-05 10:33 | -34.94105 | 138.53587 | 27 ft | 1 kts | 320° |
| 2026-05-05 10:34 | -34.94104 | 138.53586 | 27 ft | 0 kts | 320° |
| 2026-05-05 10:35 | -34.94105 | 138.53587 | 27 ft | 0 kts | 320° |